Contact Us:
Email: info@sawbill.com
Phone: (218)663-7150
Fax: (218)663-7980
Mail: 4620 Sawbill Trail
Box 2129
Tofte, MN 55615


Powered by
Movable Type 3.15
 
Sawbill Weather History Archives: April 2007
Current Sawbill Weather History | « March 2007 | May 2007 »


Date

High
Temperature

Low
Temperature

Barometric
Pressure

Relative
Humidity 7AM

9 AM
Temperature

Moisture

Snow

4/30/07 64 39 29.81 77% 45 .07"
4/29/07 73 37 29.99 77% 40 0
4/27/07 74 33 30.10 80% 49 Trace
4/26/07 67 32 29.80 71% 33 0
4/25/07 62 31 29.94 41% 44 0
4/24/07 64 32 30.17 78% 34 0
4/23/07 67 32 30.17 75% 33 0
4/22/07 67 42 29.80 85% 42 .7"
4/21/07 53 41 29.72 87% 47 .36"
4/20/07 67 38 30.16 70% 41 0
4/19/07 63 34 30.26 71% 38 0
4/18/07 64 31 30.20 76% 34 0
4/17/07 60 30 30.10 78% 31 0
4/16/07 67 30 30.12 78% 37 0
4/15/07 58 29 30.05 74% 30 0
4/14/07 54 29 30.00 75% 30 0
4/13/07 52 24 29.98 70% 31 0
4/12/07 45 22 30.08 56% 24 0
4/11/07 40 26 29.78 60% 26 0
4/10/07 41 13 29.98 72% 26 0
4/9/07 46 3 30.05 66% 13 0
4/8/07 42 2 29.96 59% 3 0
4/7/07 41 10 30.14 48% 11 0
4/6/07 23 4 30.02 62% 13 .02" .5"
4/5/07 34 4 29.78 53% 4 0
4/4/07 31 4 30.54 63% 4 0
4/3/07 38 13 29.99 72% 13 .61" 8"
4/2/07 45 32 30.03 78% 34 0
4/1/07 43 33 29.56 84% 34 .5" .25"
 


Home I Trip Planning I Rentals and Outfitting I Reservations I Campgrounds I Sawbill Store I Sawbill News I Contact

© 1997 - 2017, Sawbill Canoe Outfitters, Inc. I Privacy Policy